Time;durP1;ratioP1;P1;durP2;ratioP2;P2;SDS_P1;SDS_P2;PMS_P1;PMS_P2;Temp;Humidity;BMP_temperature;BMP_pressure;BME280_temperature;BME280_humidity;BME280_pressure;Samples;Min_cycle;Max_cycle;Signal;HPM_P1;HPM_P2
2022/01/27 00:05:55;;;;;;;54.67;39.92;;;5.60;99.90;;;;;;5053609;27;89496;-31
2022/01/27 00:08:28;;;;;;;49.47;34.47;;;5.60;99.90;;;;;;5053790;27;88109;-30
2022/01/27 00:13:25;;;;;;;56.75;38.00;;;5.60;99.90;;;;;;5054002;27;89504;-32
2022/01/27 00:15:59;;;;;;;56.97;38.85;;;5.60;99.90;;;;;;5053757;27;89403;-29
2022/01/27 00:18:26;;;;;;;49.70;38.13;;;5.70;99.90;;;;;;5054126;27;88212;-32
2022/01/27 00:20:51;;;;;;;57.75;38.63;;;5.60;99.90;;;;;;5053172;27;89615;-34
2022/01/27 00:23:17;;;;;;;53.38;36.28;;;5.50;99.90;;;;;;5053570;27;89660;-30
2022/01/27 00:25:43;;;;;;;49.70;35.83;;;5.60;99.90;;;;;;5053532;27;89326;-30
2022/01/27 00:28:09;;;;;;;52.15;35.95;;;5.50;99.90;;;;;;5052061;27;88884;-31
2022/01/27 00:30:36;;;;;;;53.60;37.15;;;5.50;99.90;;;;;;5053697;27;90295;-31
2022/01/27 00:33:03;;;;;;;43.40;32.20;;;5.50;99.90;;;;;;5054179;27;90552;-29
2022/01/27 00:35:30;;;;;;;50.03;35.40;;;5.60;99.90;;;;;;5060108;27;90521;-30
2022/01/27 00:37:55;;;;;;;53.78;41.05;;;5.60;99.90;;;;;;5059722;27;87540;-30
2022/01/27 00:40:22;;;;;;;51.88;36.92;;;5.60;99.90;;;;;;5060056;27;90376;-30
2022/01/27 00:42:47;;;;;;;55.35;37.13;;;5.50;99.90;;;;;;5059717;27;89529;-32
2022/01/27 00:45:13;;;;;;;55.38;36.92;;;5.60;99.90;;;;;;5060014;27;89236;-30
2022/01/27 00:47:39;;;;;;;47.40;34.72;;;5.60;99.90;;;;;;5060076;27;89672;-32
2022/01/27 00:50:04;;;;;;;50.33;34.95;;;5.60;99.90;;;;;;5060575;27;90423;-29
2022/01/27 00:52:38;;;;;;;55.28;36.80;;;5.60;99.90;;;;;;5060210;27;90914;-29
2022/01/27 00:55:06;;;;;;;54.38;35.95;;;5.50;99.90;;;;;;5060199;27;89183;-30
2022/01/27 01:00:01;;;;;;;50.78;37.40;;;5.50;99.90;;;;;;5059428;27;90189;-30
2022/01/27 01:02:44;;;;;;;52.03;36.22;;;5.50;99.90;;;;;;5060001;27;89652;-33
2022/01/27 01:07:59;;;;;;;48.88;35.58;;;5.40;99.90;;;;;;5059814;27;88189;-30
2022/01/27 01:15:53;;;;;;;48.50;35.53;;;5.50;99.90;;;;;;5060060;27;89652;-31
2022/01/27 01:21:00;;;;;;;52.80;36.55;;;5.50;99.90;;;;;;5059467;27;90045;-30
2022/01/27 01:32:09;;;;;;;50.28;37.42;;;5.50;99.90;;;;;;5059435;27;90631;-33
2022/01/27 01:34:34;;;;;;;54.55;34.95;;;5.50;99.90;;;;;;5059321;27;89610;-30
2022/01/27 01:37:01;;;;;;;52.88;35.88;;;5.50;99.90;;;;;;5059253;27;89451;-31
2022/01/27 01:39:33;;;;;;;48.13;35.30;;;5.50;99.90;;;;;;5041234;27;87538;-31
2022/01/27 01:42:04;;;;;;;52.03;38.08;;;5.50;99.90;;;;;;5057852;27;90119;-34
2022/01/27 01:44:29;;;;;;;52.70;38.33;;;5.50;99.90;;;;;;5057748;27;89725;-29
2022/01/27 01:46:55;;;;;;;48.85;34.85;;;5.50;99.90;;;;;;5055555;27;88831;-33
2022/01/27 01:49:26;;;;;;;44.15;35.08;;;5.50;99.90;;;;;;5055794;27;88922;-32
2022/01/27 01:51:52;;;;;;;57.28;35.00;;;5.50;99.90;;;;;;5055874;27;90821;-31
2022/01/27 01:54:18;;;;;;;56.95;36.70;;;5.50;99.90;;;;;;5056456;27;89794;-30
2022/01/27 01:56:44;;;;;;;51.05;34.90;;;5.50;99.90;;;;;;5055704;27;89417;-33
2022/01/27 01:59:10;;;;;;;42.67;33.42;;;5.50;99.90;;;;;;5056070;27;88385;-29
2022/01/27 02:01:38;;;;;;;51.05;35.63;;;5.50;99.90;;;;;;5055974;27;90189;-30
2022/01/27 02:04:07;;;;;;;46.08;32.80;;;5.50;99.90;;;;;;5055517;27;89119;-31
2022/01/27 02:06:40;;;;;;;51.25;34.83;;;5.50;99.90;;;;;;5037660;27;91181;-29
2022/01/27 02:20:15;;;;;;;45.13;29.83;;;5.40;99.90;;;;;;4972153;28;87656;-34
2022/01/27 02:22:40;;;;;;;46.13;32.67;;;5.50;99.90;;;;;;4972563;28;90263;-30
2022/01/27 02:25:07;;;;;;;54.03;33.80;;;5.50;99.90;;;;;;5009624;27;90152;-30
2022/01/27 02:27:34;;;;;;;44.75;32.33;;;5.50;99.90;;;;;;5055168;27;89933;-28
2022/01/27 02:30:00;;;;;;;49.90;35.13;;;5.50;99.90;;;;;;5054974;27;87648;-31
2022/01/27 02:32:25;;;;;;;48.90;32.55;;;5.50;99.90;;;;;;5055752;27;90409;-31
2022/01/27 02:34:51;;;;;;;46.40;30.25;;;5.50;99.90;;;;;;5054453;27;90028;-31
2022/01/27 02:37:17;;;;;;;36.45;27.90;;;5.50;99.90;;;;;;5055325;27;88838;-31
2022/01/27 02:39:43;;;;;;;45.60;29.60;;;5.50;99.90;;;;;;5055066;27;88796;-36
2022/01/27 02:42:32;;;;;;;44.33;30.13;;;5.60;99.90;;;;;;5055334;27;90178;-32
2022/01/27 02:45:04;;;;;;;40.88;30.38;;;5.60;99.90;;;;;;5054870;27;89800;-30
2022/01/27 02:47:30;;;;;;;43.28;31.75;;;5.60;99.90;;;;;;5054719;27;88495;-30
2022/01/27 02:49:56;;;;;;;40.15;29.27;;;5.70;99.90;;;;;;5055209;27;87792;-31
2022/01/27 02:52:22;;;;;;;48.60;34.30;;;5.70;99.90;;;;;;5055274;27;90574;-30
2022/01/27 02:54:48;;;;;;;47.22;34.30;;;5.70;99.90;;;;;;5055073;27;89502;-32
2022/01/27 02:57:14;;;;;;;49.35;32.55;;;5.70;99.90;;;;;;5053608;27;89096;-30
2022/01/27 02:59:40;;;;;;;48.45;33.83;;;5.70;99.90;;;;;;5054808;27;87739;-33
2022/01/27 03:02:05;;;;;;;50.28;34.88;;;5.70;99.90;;;;;;5054870;27;90102;-31
2022/01/27 03:04:33;;;;;;;50.90;31.88;;;5.70;99.90;;;;;;5054343;27;90712;-30
2022/01/27 03:06:59;;;;;;;43.80;31.75;;;5.80;99.90;;;;;;5054612;27;90587;-33
2022/01/27 03:09:25;;;;;;;46.40;34.65;;;5.80;99.90;;;;;;5055223;27;87828;-30
2022/01/27 03:11:56;;;;;;;45.53;31.05;;;5.80;99.90;;;;;;5054773;27;91614;-30
2022/01/27 03:14:24;;;;;;;45.45;30.42;;;5.90;99.90;;;;;;5054945;27;89766;-30
2022/01/27 03:16:54;;;;;;;49.28;34.38;;;5.80;99.90;;;;;;5054527;27;89502;-30
2022/01/27 03:19:20;;;;;;;56.70;35.17;;;5.90;99.90;;;;;;5054297;27;88375;-34
2022/01/27 03:21:45;;;;;;;47.70;33.72;;;5.80;99.90;;;;;;5054484;27;89277;-29
2022/01/27 03:24:11;;;;;;;47.10;30.42;;;5.80;99.90;;;;;;5054397;27;89908;-30
2022/01/27 03:26:37;;;;;;;45.28;31.58;;;5.90;99.90;;;;;;5054314;27;90013;-30
2022/01/27 03:29:04;;;;;;;46.28;32.22;;;5.90;99.90;;;;;;5053950;27;89018;-31
2022/01/27 03:31:29;;;;;;;45.83;31.73;;;5.90;99.90;;;;;;5054678;27;90368;-30
2022/01/27 03:33:55;;;;;;;49.15;32.85;;;5.90;99.90;;;;;;5053817;27;90300;-30
2022/01/27 03:36:21;;;;;;;50.40;32.08;;;5.90;99.90;;;;;;5036180;27;89446;-32
2022/01/27 03:38:47;;;;;;;49.35;30.90;;;5.90;99.90;;;;;;5054548;27;88465;-31
2022/01/27 03:41:18;;;;;;;41.88;29.95;;;6.00;99.90;;;;;;5053660;27;90103;-29
2022/01/27 03:43:44;;;;;;;44.67;32.97;;;6.00;99.90;;;;;;5053977;27;89999;-31
2022/01/27 03:46:10;;;;;;;44.88;28.90;;;6.00;99.90;;;;;;5036316;27;89650;-30
2022/01/27 03:48:36;;;;;;;43.95;31.80;;;6.00;99.90;;;;;;5053292;27;87793;-31
2022/01/27 03:51:03;;;;;;;50.10;32.97;;;6.10;99.90;;;;;;5054065;27;89142;-29
2022/01/27 03:53:29;;;;;;;45.85;32.00;;;6.10;99.90;;;;;;5053749;27;90647;-29
2022/01/27 03:55:54;;;;;;;44.53;33.67;;;6.00;99.90;;;;;;5053968;27;90555;-30
2022/01/27 03:58:20;;;;;;;48.58;34.53;;;5.90;99.90;;;;;;5053914;27;87732;-34
2022/01/27 04:00:45;;;;;;;47.40;28.75;;;5.90;99.90;;;;;;5054026;27;90179;-30
2022/01/27 04:03:14;;;;;;;44.38;33.03;;;5.90;99.90;;;;;;5053876;27;90391;-30
2022/01/27 04:05:50;;;;;;;53.67;31.48;;;5.90;99.90;;;;;;5053824;27;89793;-34
2022/01/27 04:08:16;;;;;;;41.83;29.08;;;5.90;99.90;;;;;;5053845;27;88448;-32
2022/01/27 04:10:42;;;;;;;44.08;33.13;;;5.80;99.90;;;;;;5053812;27;90284;-30
2022/01/27 04:13:08;;;;;;;47.78;32.58;;;5.80;99.90;;;;;;5053532;27;88397;-33
2022/01/27 04:15:35;;;;;;;44.78;34.28;;;5.90;99.90;;;;;;5053716;27;89568;-30
2022/01/27 04:18:01;;;;;;;51.75;36.42;;;5.80;99.90;;;;;;5053285;27;88389;-31
2022/01/27 04:20:27;;;;;;;49.55;33.85;;;5.90;99.90;;;;;;5053645;27;90149;-31
2022/01/27 04:22:52;;;;;;;46.47;28.67;;;5.90;99.90;;;;;;5053504;27;89011;-31
2022/01/27 04:25:18;;;;;;;46.05;30.73;;;5.90;99.90;;;;;;5053812;27;89631;-31
2022/01/27 04:27:49;;;;;;;47.25;34.40;;;5.90;99.90;;;;;;5053696;27;87683;-30
2022/01/27 04:30:17;;;;;;;48.70;32.58;;;5.90;99.90;;;;;;5053080;27;90163;-30
2022/01/27 04:32:51;;;;;;;50.60;32.60;;;5.90;99.90;;;;;;5053186;27;88431;-31
2022/01/27 04:35:20;;;;;;;55.10;36.08;;;5.90;99.90;;;;;;5053843;27;89328;-31
2022/01/27 04:40:48;;;;;;;43.70;28.55;;;5.90;99.90;;;;;;5055468;27;88882;-31
2022/01/27 04:43:29;;;;;;;43.03;30.15;;;6.00;99.90;;;;;;5052815;27;90749;-31
2022/01/27 04:48:51;;;;;;;50.47;31.50;;;5.90;99.90;;;;;;5053116;27;87676;-31
2022/01/27 04:51:20;;;;;;;50.40;32.23;;;6.00;99.90;;;;;;5053372;27;91221;-29
2022/01/27 04:54:05;;;;;;;46.65;31.83;;;6.00;99.90;;;;;;5053134;27;88571;-29
2022/01/27 04:56:33;;;;;;;48.88;31.42;;;6.00;99.90;;;;;;5053367;27;89959;-31
2022/01/27 04:59:03;;;;;;;37.45;27.23;;;6.00;99.90;;;;;;5053224;27;88178;-30
2022/01/27 05:01:41;;;;;;;43.25;28.00;;;6.00;99.90;;;;;;5053326;27;90369;-30
2022/01/27 05:04:11;;;;;;;54.63;33.60;;;6.00;99.90;;;;;;5053133;27;89773;-32
2022/01/27 05:06:37;;;;;;;45.03;33.63;;;6.00;99.90;;;;;;5053158;27;91170;-30
2022/01/27 05:09:03;;;;;;;43.83;30.10;;;6.00;99.90;;;;;;5052630;27;88388;-31
2022/01/27 05:11:35;;;;;;;50.45;29.15;;;6.00;99.90;;;;;;5053414;27;89508;-31
2022/01/27 05:14:12;;;;;;;42.10;29.95;;;6.00;99.90;;;;;;5052815;27;90042;-31
2022/01/27 05:16:38;;;;;;;52.42;30.02;;;6.00;99.90;;;;;;5053044;27;88951;-32
2022/01/27 05:19:04;;;;;;;43.67;28.30;;;6.00;99.90;;;;;;5052570;27;88780;-30
2022/01/27 05:21:32;;;;;;;39.53;27.45;;;6.10;99.90;;;;;;5055897;27;89713;-30
2022/01/27 05:23:58;;;;;;;;;;;6.10;99.90;;;;;;5056598;27;89779;-33
2022/01/27 05:26:23;;;;;;;40.38;28.27;;;6.10;99.90;;;;;;5058638;27;88596;-34
2022/01/27 05:28:49;;;;;;;43.72;28.98;;;6.10;99.90;;;;;;5056840;27;88814;-30
2022/01/27 05:31:15;;;;;;;48.50;30.38;;;6.10;99.90;;;;;;5056413;27;90046;-30
2022/01/27 05:33:40;;;;;;;46.50;27.17;;;6.10;99.90;;;;;;5056180;27;90506;-32
2022/01/27 05:36:06;;;;;;;43.88;28.15;;;6.00;99.90;;;;;;5055867;27;90503;-31
2022/01/27 05:38:32;;;;;;;49.58;30.45;;;6.10;99.90;;;;;;5055966;27;87679;-31
2022/01/27 05:40:57;;;;;;;48.35;32.15;;;6.00;99.90;;;;;;5056282;27;89954;-34
2022/01/27 05:43:23;;;;;;;44.97;30.35;;;6.00;99.90;;;;;;5056001;27;89648;-30
2022/01/27 05:45:49;;;;;;;44.15;30.05;;;6.00;99.90;;;;;;5056121;27;89725;-31
2022/01/27 05:48:14;;;;;;;43.45;28.92;;;6.00;99.90;;;;;;5056120;27;88294;-31
2022/01/27 05:50:40;;;;;;;43.92;27.58;;;6.00;99.90;;;;;;5056196;27;90333;-32
2022/01/27 05:53:05;;;;;;;41.33;29.10;;;5.90;99.90;;;;;;5055829;27;89370;-31
2022/01/27 05:55:31;;;;;;;40.95;30.65;;;5.90;99.90;;;;;;5055857;27;89587;-29
2022/01/27 05:57:57;;;;;;;57.42;33.30;;;5.90;99.90;;;;;;5055676;27;88434;-32
2022/01/27 06:00:22;;;;;;;55.30;33.42;;;5.90;99.90;;;;;;5055596;27;90361;-33
2022/01/27 06:02:48;;;;;;;44.85;32.00;;;5.90;99.90;;;;;;5055993;27;93033;-32
2022/01/27 06:05:14;;;;;;;45.30;33.72;;;5.80;99.90;;;;;;5055317;27;89609;-30
2022/01/27 06:07:40;;;;;;;56.08;32.50;;;5.80;99.90;;;;;;5056074;27;87925;-34
2022/01/27 06:10:06;;;;;;;47.53;31.85;;;5.80;99.90;;;;;;5055715;27;90783;-29
2022/01/27 06:12:32;;;;;;;46.15;33.03;;;5.70;99.90;;;;;;5055407;27;91364;-34
2022/01/27 06:14:57;;;;;;;51.25;33.40;;;5.70;99.90;;;;;;5056004;27;89564;-33
2022/01/27 06:17:23;;;;;;;47.40;33.70;;;5.80;99.90;;;;;;5055258;27;87534;-29
2022/01/27 06:19:49;;;;;;;50.22;32.83;;;5.80;99.90;;;;;;5055809;27;90335;-32
2022/01/27 06:22:15;;;;;;;48.30;31.50;;;5.70;99.90;;;;;;5054852;27;89673;-31
2022/01/27 06:24:42;;;;;;;55.40;32.67;;;5.70;99.90;;;;;;5055507;27;90395;-31
2022/01/27 06:27:09;;;;;;;51.60;34.03;;;5.70;99.90;;;;;;5055094;27;88524;-32
2022/01/27 06:29:35;;;;;;;53.20;31.65;;;5.70;99.90;;;;;;5055560;27;90262;-30
2022/01/27 06:32:01;;;;;;;49.40;33.47;;;5.70;99.90;;;;;;5054812;27;88304;-32
2022/01/27 06:34:27;;;;;;;50.72;32.63;;;5.60;99.90;;;;;;5055085;27;89555;-30
2022/01/27 06:36:52;;;;;;;51.45;31.08;;;5.60;99.90;;;;;;5055420;27;88202;-30
2022/01/27 06:39:18;;;;;;;50.90;32.17;;;5.60;99.90;;;;;;5054797;27;89275;-30
2022/01/27 06:41:44;;;;;;;42.42;30.45;;;5.70;99.90;;;;;;5055189;27;89422;-32
2022/01/27 06:44:10;;;;;;;40.70;29.25;;;5.60;99.90;;;;;;5055560;27;89546;-30
2022/01/27 06:46:36;;;;;;;41.88;28.52;;;5.70;99.90;;;;;;5054167;27;88092;-31
2022/01/27 06:49:03;;;;;;;38.78;26.00;;;5.70;99.90;;;;;;5036734;27;88643;-31
2022/01/27 06:51:29;;;;;;;43.22;28.50;;;5.80;99.90;;;;;;5054976;27;89731;-30
2022/01/27 06:53:55;;;;;;;51.88;30.92;;;5.70;99.90;;;;;;5055240;27;89546;-30
2022/01/27 06:56:21;;;;;;;33.33;24.58;;;5.70;99.90;;;;;;5054862;27;88067;-32
2022/01/27 06:58:47;;;;;;;34.47;24.30;;;5.70;99.90;;;;;;5054908;27;89048;-31
2022/01/27 07:01:12;;;;;;;36.92;28.20;;;5.70;99.90;;;;;;5054562;27;89524;-31
2022/01/27 07:03:38;;;;;;;45.75;30.83;;;5.80;99.90;;;;;;5055297;27;90073;-30
2022/01/27 07:06:04;;;;;;;33.80;24.27;;;5.70;99.90;;;;;;5054325;27;87784;-31
2022/01/27 07:08:29;;;;;;;28.42;21.48;;;5.70;99.90;;;;;;5054865;27;90319;-30
2022/01/27 07:10:55;;;;;;;44.20;27.48;;;5.80;99.90;;;;;;5054552;27;90541;-30
2022/01/27 07:13:20;;;;;;;28.02;22.77;;;5.80;99.90;;;;;;5054783;27;90313;-31
2022/01/27 07:15:46;;;;;;;36.58;24.63;;;5.80;99.90;;;;;;5060921;27;87780;-31
2022/01/27 07:18:11;;;;;;;35.83;24.55;;;5.70;99.90;;;;;;5058040;27;90203;-33
2022/01/27 07:20:37;;;;;;;32.47;25.55;;;5.80;99.90;;;;;;5054753;27;89419;-30
2022/01/27 07:23:05;;;;;;;34.35;24.73;;;5.80;99.90;;;;;;5054696;27;88114;-31
2022/01/27 07:25:31;;;;;;;31.38;24.15;;;5.80;99.90;;;;;;5054989;27;89095;-31
2022/01/27 07:27:57;;;;;;;43.00;27.67;;;5.70;99.90;;;;;;5054855;27;90131;-30
2022/01/27 07:30:22;;;;;;;31.17;23.60;;;5.80;99.90;;;;;;5054250;27;90014;-30
2022/01/27 07:32:48;;;;;;;31.50;23.05;;;5.80;99.90;;;;;;5054278;27;89202;-32
2022/01/27 07:35:13;;;;;;;32.15;22.52;;;5.80;99.90;;;;;;5053703;27;88511;-31
2022/01/27 07:37:41;;;;;;;28.40;21.25;;;5.90;99.90;;;;;;5054027;27;90179;-30
2022/01/27 07:40:08;;;;;;;22.92;18.58;;;5.90;99.90;;;;;;5053416;27;88700;-31
2022/01/27 07:42:33;;;;;;;29.40;21.25;;;5.90;99.90;;;;;;5067181;27;89458;-31
2022/01/27 07:44:59;;;;;;;23.33;20.85;;;5.90;99.90;;;;;;5059149;27;87831;-29
2022/01/27 07:47:24;;;;;;;22.75;18.95;;;5.90;99.90;;;;;;5053543;27;90177;-31
2022/01/27 07:49:50;;;;;;;26.85;19.35;;;5.90;99.90;;;;;;5053952;27;89613;-32
2022/01/27 07:52:18;;;;;;;29.83;19.65;;;6.00;99.90;;;;;;5054082;27;89411;-33
2022/01/27 07:54:43;;;;;;;24.85;18.95;;;6.00;99.90;;;;;;5054428;27;88530;-31
2022/01/27 07:57:09;;;;;;;26.15;19.50;;;6.00;99.90;;;;;;5035718;27;89185;-30
2022/01/27 07:59:34;;;;;;;25.80;19.00;;;6.00;99.90;;;;;;5053414;27;90910;-29
2022/01/27 08:02:01;;;;;;;25.33;20.10;;;6.00;99.90;;;;;;5054273;27;91122;-30
2022/01/27 08:04:26;;;;;;;24.00;18.73;;;6.00;99.90;;;;;;5053557;27;87606;-29
2022/01/27 08:06:52;;;;;;;23.63;18.40;;;6.10;99.90;;;;;;5053799;27;89827;-31
2022/01/27 08:09:17;;;;;;;24.70;18.58;;;6.10;99.90;;;;;;5053509;27;89340;-30
2022/01/27 08:11:43;;;;;;;29.38;20.10;;;6.10;99.90;;;;;;5050764;27;89183;-33
2022/01/27 08:14:09;;;;;;;17.25;12.27;;;6.10;99.90;;;;;;5050883;27;88037;-31
2022/01/27 08:16:34;;;;;;;23.38;19.98;;;6.20;99.90;;;;;;5052161;27;88687;-31
2022/01/27 08:19:00;;;;;;;22.55;19.30;;;6.20;99.90;;;;;;5050603;27;89874;-34
2022/01/27 08:21:25;;;;;;;22.98;17.02;;;6.20;99.90;;;;;;5050494;27;88184;-30
2022/01/27 08:23:52;;;;;;;22.05;18.52;;;6.20;99.90;;;;;;5031082;27;88923;-30
2022/01/27 08:26:29;;;;;;;24.33;17.75;;;6.20;99.90;;;;;;5050734;27;90385;-31
2022/01/27 08:29:09;;;;;;;29.53;20.07;;;6.20;99.90;;;;;;5053265;27;89382;-31
2022/01/27 08:31:53;;;;;;;23.27;16.75;;;6.20;99.90;;;;;;5035641;27;89592;-31
2022/01/27 08:34:27;;;;;;;27.77;19.75;;;6.40;99.90;;;;;;5053067;27;87903;-31
2022/01/27 08:36:53;;;;;;;28.33;18.70;;;6.30;99.90;;;;;;5053161;27;90473;-30
2022/01/27 08:39:18;;;;;;;27.38;20.63;;;6.30;99.90;;;;;;5053479;27;89814;-32
2022/01/27 08:41:44;;;;;;;36.15;20.45;;;6.30;99.90;;;;;;5053878;27;89789;-31
2022/01/27 08:44:10;;;;;;;33.55;20.60;;;6.40;99.90;;;;;;5053140;27;87644;-31
2022/01/27 08:46:36;;;;;;;28.70;22.02;;;6.40;99.90;;;;;;5052728;27;90235;-31
2022/01/27 08:49:03;;;;;;;36.28;21.80;;;6.50;99.90;;;;;;5052758;27;90484;-30
2022/01/27 08:51:30;;;;;;;34.85;21.95;;;6.50;99.90;;;;;;5052555;27;91053;-32
2022/01/27 08:53:55;;;;;;;27.73;17.60;;;6.50;99.90;;;;;;5053874;27;87707;-33
2022/01/27 08:56:21;;;;;;;40.58;22.23;;;6.60;99.90;;;;;;5056049;27;90660;-29
2022/01/27 08:58:47;;;;;;;39.33;22.25;;;6.60;99.90;;;;;;5056511;27;90123;-32
2022/01/27 09:01:13;;;;;;;38.35;22.75;;;6.70;99.90;;;;;;5056609;27;89169;-32
2022/01/27 09:03:39;;;;;;;41.92;21.05;;;6.70;99.90;;;;;;5057132;27;88941;-30
2022/01/27 09:06:05;;;;;;;26.23;18.48;;;6.80;99.90;;;;;;5056268;27;90138;-33
2022/01/27 09:08:30;;;;;;;32.22;20.85;;;6.80;99.90;;;;;;5056587;27;89912;-29
2022/01/27 09:10:56;;;;;;;34.58;20.90;;;6.80;99.90;;;;;;5056581;27;89831;-31
2022/01/27 09:13:22;;;;;;;29.83;17.92;;;6.90;99.90;;;;;;5056035;27;88015;-32
2022/01/27 09:15:49;;;;;;;32.10;19.55;;;6.90;99.90;;;;;;5056470;27;89460;-31
2022/01/27 09:18:16;;;;;;;34.35;19.52;;;7.00;99.90;;;;;;5056091;27;89837;-30
2022/01/27 09:20:42;;;;;;;47.05;21.25;;;7.10;99.90;;;;;;5056590;27;88717;-32
2022/01/27 09:23:13;;;;;;;33.08;19.75;;;7.10;99.90;;;;;;5056344;27;87802;-32
2022/01/27 09:25:46;;;;;;;34.05;18.85;;;7.10;99.90;;;;;;5055992;27;90552;-32
2022/01/27 09:28:13;;;;;;;27.20;18.30;;;7.10;99.90;;;;;;5055762;27;89870;-32
2022/01/27 09:30:39;;;;;;;35.30;19.42;;;7.20;99.90;;;;;;5056377;27;89099;-33
2022/01/27 09:33:05;;;;;;;33.30;18.23;;;7.20;99.90;;;;;;5056784;27;87664;-30
2022/01/27 09:35:31;;;;;;;36.33;18.88;;;7.20;99.90;;;;;;5056088;27;91523;-29
2022/01/27 09:37:58;;;;;;;29.80;16.30;;;7.20;99.90;;;;;;5055506;27;90969;-30
2022/01/27 09:40:24;;;;;;;34.97;17.35;;;7.20;99.90;;;;;;5056187;27;90635;-32
2022/01/27 09:42:53;;;;;;;27.75;18.17;;;7.30;99.90;;;;;;5055806;27;88316;-30
2022/01/27 09:45:19;;;;;;;26.50;17.83;;;7.30;99.90;;;;;;5055991;27;90148;-31
2022/01/27 09:47:54;;;;;;;27.63;15.90;;;7.40;99.90;;;;;;5055801;27;89314;-32
2022/01/27 09:50:30;;;;;;;32.63;17.80;;;7.40;99.90;;;;;;5056244;27;89531;-31
2022/01/27 09:52:56;;;;;;;36.30;16.88;;;7.30;99.90;;;;;;5056188;27;87685;-29
2022/01/27 09:55:22;;;;;;;27.70;15.32;;;7.40;99.90;;;;;;5056312;27;90354;-30
2022/01/27 09:57:48;;;;;;;29.90;13.82;;;7.50;99.90;;;;;;5055756;27;89657;-32
2022/01/27 10:00:15;;;;;;;36.17;14.85;;;7.50;99.90;;;;;;5037870;27;89644;-30
2022/01/27 10:03:11;;;;;;;26.80;13.88;;;7.60;99.90;;;;;;5055512;27;88490;-30
2022/01/27 10:05:38;;;;;;;21.20;12.40;;;7.60;99.90;;;;;;5055020;27;89168;-32
2022/01/27 10:08:11;;;;;;;34.72;13.93;;;7.70;99.90;;;;;;5055307;27;89732;-36
2022/01/27 10:10:42;;;;;;;25.25;13.38;;;7.70;99.90;;;;;;5055867;27;89334;-32
2022/01/27 10:13:10;;;;;;;25.00;13.20;;;7.70;99.90;;;;;;5055618;27;87700;-31
2022/01/27 10:15:38;;;;;;;34.95;13.40;;;7.70;99.90;;;;;;5037426;27;90094;-30
2022/01/27 10:18:08;;;;;;;28.10;13.77;;;7.80;99.90;;;;;;5055267;27;90256;-32
2022/01/27 10:20:36;;;;;;;18.98;10.60;;;7.80;99.90;;;;;;5037777;27;91267;-30
2022/01/27 10:23:14;;;;;;;23.00;11.70;;;7.80;99.90;;;;;;5055270;27;88934;-33
2022/01/27 10:25:47;;;;;;;;;;;7.90;99.90;;;;;;5056343;27;88990;-31
2022/01/27 10:28:36;;;;;;;15.50;10.65;;;8.00;99.90;;;;;;5054911;27;89780;-30
2022/01/27 10:31:20;;;;;;;21.83;11.68;;;8.00;99.90;;;;;;5055242;27;90585;-33
2022/01/27 10:33:50;;;;;;;22.70;10.60;;;8.00;99.90;;;;;;5055585;27;87698;-31
2022/01/27 10:36:28;;;;;;;16.92;10.45;;;8.10;99.90;;;;;;5054912;27;89997;-31
2022/01/27 10:38:56;;;;;;;25.73;11.00;;;8.10;99.90;;;;;;5055014;27;88479;-32
2022/01/27 10:41:26;;;;;;;20.58;9.70;;;8.10;99.90;;;;;;5055290;27;89471;-32
2022/01/27 10:44:05;;;;;;;23.27;9.57;;;8.20;99.90;;;;;;5056110;27;88054;-31
2022/01/27 10:46:32;;;;;;;21.25;10.38;;;8.20;99.90;;;;;;5055196;27;90298;-32
2022/01/27 10:49:10;;;;;;;17.98;9.95;;;8.20;99.90;;;;;;5055160;27;89578;-30
2022/01/27 10:51:46;;;;;;;23.02;10.07;;;8.20;99.90;;;;;;5055754;27;89572;-30
2022/01/27 10:54:24;;;;;;;23.73;9.82;;;8.30;99.90;;;;;;5054731;27;88260;-31
2022/01/27 10:56:49;;;;;;;23.52;8.70;;;8.30;99.90;;;;;;5037663;27;90896;-30
2022/01/27 10:59:19;;;;;;;14.30;9.18;;;8.20;99.90;;;;;;5055332;27;90202;-35
2022/01/27 11:01:50;;;;;;;21.10;9.38;;;8.20;99.90;;;;;;5055121;27;89911;-32
2022/01/27 11:04:19;;;;;;;20.48;8.75;;;8.20;99.90;;;;;;5055203;27;88115;-34
2022/01/27 11:07:00;;;;;;;24.52;9.73;;;8.30;99.90;;;;;;5055261;27;90312;-30
2022/01/27 11:09:28;;;;;;;21.52;9.05;;;8.30;99.90;;;;;;5055356;27;89987;-31
2022/01/27 11:11:55;;;;;;;17.93;8.67;;;8.40;99.90;;;;;;5055747;27;89994;-30
2022/01/27 11:14:24;;;;;;;19.30;8.47;;;8.40;99.90;;;;;;5055261;27;87562;-31
2022/01/27 11:16:54;;;;;;;17.70;7.40;;;8.50;99.90;;;;;;5055429;27;89087;-32
2022/01/27 11:22:06;;;;;;;18.27;8.40;;;8.40;99.90;;;;;;5055306;27;90451;-30
2022/01/27 11:24:54;;;;;;;22.08;7.40;;;8.50;99.90;;;;;;5055655;27;87490;-29
2022/01/27 11:27:22;;;;;;;23.90;9.10;;;8.50;99.90;;;;;;5055136;27;90687;-33
2022/01/27 11:29:56;;;;;;;17.65;8.05;;;8.60;99.90;;;;;;5055405;27;89821;-32
2022/01/27 11:32:39;;;;;;;12.52;5.85;;;8.60;99.90;;;;;;5054126;27;88360;-30
2022/01/27 11:35:22;;;;;;;17.20;6.93;;;8.70;99.90;;;;;;5055297;27;87555;-33
2022/01/27 11:37:52;;;;;;;13.23;6.97;;;8.70;99.90;;;;;;5054752;27;89215;-30
2022/01/27 11:40:20;;;;;;;21.95;8.38;;;8.60;99.90;;;;;;5055015;27;90343;-32
2022/01/27 11:42:55;;;;;;;18.60;7.80;;;8.60;99.90;;;;;;5054678;27;89133;-31
2022/01/27 11:45:20;;;;;;;14.93;6.55;;;8.60;99.90;;;;;;5054353;27;88381;-34
2022/01/27 11:47:50;;;;;;;9.63;5.95;;;8.70;99.90;;;;;;5086897;22;90288;-31
2022/01/27 11:50:33;;;;;;;20.52;6.57;;;8.70;99.90;;;;;;5054894;27;89604;-32
2022/01/27 11:53:01;;;;;;;18.73;7.10;;;8.80;99.90;;;;;;5055131;27;89416;-31
2022/01/27 11:55:26;;;;;;;23.65;7.40;;;8.80;99.90;;;;;;5055332;27;87701;-34
2022/01/27 11:57:57;;;;;;;13.15;6.38;;;8.80;99.90;;;;;;5054652;27;90138;-34
2022/01/27 12:00:31;;;;;;;18.73;8.00;;;8.90;99.90;;;;;;5054344;27;89280;-31
2022/01/27 12:03:03;;;;;;;14.45;6.10;;;8.90;99.90;;;;;;5054663;27;89556;-31
2022/01/27 12:05:41;;;;;;;13.30;5.70;;;8.90;99.90;;;;;;5054646;27;87528;-31
2022/01/27 12:08:13;;;;;;;19.85;6.68;;;8.90;99.90;;;;;;5054911;27;90184;-30
2022/01/27 12:10:49;;;;;;;12.15;5.57;;;8.90;99.90;;;;;;5053583;27;90824;-30
2022/01/27 12:19:03;;;;;;;19.08;6.68;;;8.90;99.90;;;;;;5054506;27;90085;-30
2022/01/27 12:21:28;;;;;;;19.20;5.88;;;8.90;99.90;;;;;;5053392;27;89980;-32
2022/01/27 12:24:13;;;;;;;10.18;4.53;;;8.90;99.90;;;;;;5036587;27;90474;-29
2022/01/27 12:26:47;;;;;;;12.15;4.90;;;8.90;99.90;;;;;;5054005;27;87582;-30
2022/01/27 12:29:34;;;;;;;20.50;6.45;;;8.90;99.90;;;;;;5053697;27;90469;-35
2022/01/27 12:32:08;;;;;;;11.00;5.20;;;9.00;99.90;;;;;;5054295;27;89780;-33
2022/01/27 12:34:36;;;;;;;11.30;5.03;;;9.00;99.90;;;;;;5054097;27;90045;-32
2022/01/27 12:37:08;;;;;;;14.00;5.63;;;9.00;99.90;;;;;;5054080;27;89259;-31
2022/01/27 12:39:54;;;;;;;9.68;5.18;;;9.10;99.90;;;;;;5053346;27;90365;-29
2022/01/27 12:42:26;;;;;;;14.55;5.78;;;9.10;99.90;;;;;;5053366;27;89822;-33
2022/01/27 12:45:14;;;;;;;20.50;5.30;;;9.10;99.90;;;;;;5052262;27;90010;-33
2022/01/27 12:47:46;;;;;;;19.98;5.55;;;9.10;99.90;;;;;;5053904;27;89033;-34
2022/01/27 12:50:20;;;;;;;10.20;3.97;;;9.10;99.90;;;;;;5054372;27;88773;-33
2022/01/27 12:52:47;;;;;;;19.67;5.10;;;9.10;99.90;;;;;;5053854;27;89957;-29
2022/01/27 12:55:13;;;;;;;15.82;5.50;;;9.10;99.90;;;;;;5054286;27;89505;-30
2022/01/27 12:57:40;;;;;;;10.90;4.32;;;9.10;99.90;;;;;;5053695;27;87521;-33
2022/01/27 13:00:08;;;;;;;17.95;5.45;;;9.10;99.90;;;;;;5053883;27;88914;-30
2022/01/27 13:02:34;;;;;;;16.77;5.53;;;9.10;99.90;;;;;;5052902;27;90283;-31
2022/01/27 13:05:01;;;;;;;14.02;6.10;;;9.00;99.90;;;;;;5053677;27;91162;-33
2022/01/27 13:07:28;;;;;;;19.17;4.90;;;9.00;99.90;;;;;;5053682;27;87511;-30
2022/01/27 13:10:04;;;;;;;14.55;5.43;;;9.10;99.90;;;;;;5053874;27;90323;-31
2022/01/27 13:12:37;;;;;;;19.55;5.78;;;9.10;99.90;;;;;;5053665;27;89913;-33
2022/01/27 13:17:45;;;;;;;14.98;4.88;;;9.20;99.90;;;;;;5053778;27;87517;-31
2022/01/27 13:20:25;;;;;;;17.92;5.45;;;9.20;99.90;;;;;;5053808;27;88947;-32
2022/01/27 13:22:55;;;;;;;16.85;4.75;;;9.20;99.90;;;;;;5053435;27;89776;-31
2022/01/27 13:25:23;;;;;;;23.20;6.30;;;9.20;99.90;;;;;;5053389;27;89467;-33
2022/01/27 13:28:05;;;;;;;17.80;5.78;;;9.20;99.90;;;;;;5053237;27;89024;-30
2022/01/27 13:30:32;;;;;;;19.00;4.78;;;9.30;99.90;;;;;;5053324;27;90315;-31
2022/01/27 13:32:58;;;;;;;12.20;4.40;;;9.40;99.90;;;;;;5053293;27;89733;-31
2022/01/27 13:35:24;;;;;;;14.93;5.38;;;9.30;99.90;;;;;;5053022;27;89794;-34
2022/01/27 13:37:49;;;;;;;17.40;4.93;;;9.30;99.90;;;;;;5053698;27;87851;-31
2022/01/27 13:43:16;;;;;;;15.15;5.03;;;9.30;99.90;;;;;;5057020;27;90037;-32
2022/01/27 13:45:42;;;;;;;19.08;4.43;;;9.30;99.90;;;;;;5038581;27;89885;-30
2022/01/27 13:48:22;;;;;;;16.92;4.78;;;9.40;99.90;;;;;;5056073;27;87740;-31